createdAt,value
2019-02-16T00:02:13.406Z,7.53
2019-02-16T00:04:42.621Z,7.30
2019-02-16T00:07:12.366Z,6.83
2019-02-16T00:09:41.428Z,9.43
2019-02-16T00:12:10.627Z,7.30
2019-02-16T00:14:41.878Z,8.63
2019-02-16T00:17:11.213Z,8.57
2019-02-16T00:19:42.407Z,9.17
2019-02-16T00:22:11.869Z,6.30
2019-02-16T00:24:40.988Z,6.50
2019-02-16T00:27:10.458Z,6.43
2019-02-16T00:29:40.544Z,6.70
2019-02-16T00:32:10.400Z,7.60
2019-02-16T00:34:39.769Z,6.47
2019-02-16T00:37:08.989Z,6.60
2019-02-16T00:39:38.189Z,8.37
2019-02-16T00:42:07.798Z,8.13
2019-02-16T00:44:37.479Z,6.27
2019-02-16T00:47:06.898Z,8.50
2019-02-16T00:49:36.548Z,7.13
2019-02-16T00:52:05.801Z,8.40
2019-02-16T00:54:35.222Z,6.40
2019-02-16T00:57:05.942Z,7.33
2019-02-16T00:59:36.374Z,7.43
2019-02-16T01:02:06.089Z,8.27
2019-02-16T01:04:36.514Z,6.60
2019-02-16T01:07:07.017Z,6.40
2019-02-16T01:09:36.627Z,9.63
2019-02-16T01:12:05.950Z,7.80
2019-02-16T01:14:35.603Z,7.77
2019-02-16T01:17:05.278Z,6.57
2019-02-16T01:19:34.963Z,6.23
2019-02-16T01:22:03.957Z,6.33
2019-02-16T01:24:35.862Z,6.67
2019-02-16T01:27:06.939Z,7.90
2019-02-16T01:29:48.707Z,8.77
2019-02-16T01:32:22.336Z,9.33
2019-02-16T01:34:55.152Z,6.77
2019-02-16T01:37:30.275Z,8.23
2019-02-16T01:40:07.932Z,8.47
2019-02-16T01:42:39.537Z,7.10
2019-02-16T01:45:11.204Z,5.80
2019-02-16T01:47:45.267Z,9.67
2019-02-16T01:50:14.354Z,6.63
2019-02-16T01:52:56.278Z,6.27
2019-02-16T01:55:30.605Z,6.33
2019-02-16T01:58:00.138Z,6.53
2019-02-16T02:00:29.611Z,7.07
2019-02-16T02:02:59.676Z,10.77
2019-02-16T02:05:30.853Z,8.93
2019-02-16T02:08:02.759Z,6.20
2019-02-16T02:10:32.888Z,8.60
2019-02-16T02:13:04.586Z,7.90
2019-02-16T02:15:34.454Z,6.17
2019-02-16T02:18:04.344Z,8.17
2019-02-16T02:20:36.968Z,7.03
2019-02-16T02:23:11.069Z,6.97
2019-02-16T02:25:40.375Z,9.17
2019-02-16T02:28:09.793Z,6.53
2019-02-16T02:30:42.043Z,6.83
2019-02-16T02:33:11.046Z,7.23
2019-02-16T02:35:40.206Z,7.97
2019-02-16T02:38:10.135Z,8.47
2019-02-16T02:40:39.340Z,8.00
2019-02-16T02:43:08.237Z,6.47
2019-02-16T02:45:37.610Z,9.57
2019-02-16T02:48:08.385Z,6.63
2019-02-16T02:50:37.401Z,7.63
2019-02-16T02:53:07.058Z,9.20
2019-02-16T02:55:44.353Z,6.70
2019-02-16T02:58:14.197Z,11.03
2019-02-16T03:00:43.354Z,5.80
2019-02-16T03:03:13.062Z,6.83
2019-02-16T03:05:43.745Z,6.13
2019-02-16T03:08:13.317Z,9.30
2019-02-16T03:10:43.011Z,5.80
2019-02-16T03:13:13.141Z,8.37
2019-02-16T03:15:42.256Z,7.33
2019-02-16T03:18:12.593Z,6.97
2019-02-16T03:20:41.774Z,8.13
2019-02-16T03:23:18.561Z,7.27
2019-02-16T03:26:09.043Z,7.83
2019-02-16T03:29:18.676Z,8.37
2019-02-16T03:32:20.064Z,7.87
2019-02-16T03:35:29.546Z,7.97
2019-02-16T03:38:40.740Z,8.07
2019-02-16T03:41:12.860Z,8.17
2019-02-16T03:43:42.199Z,9.33
2019-02-16T03:46:12.034Z,10.37
2019-02-16T03:48:41.325Z,7.13
2019-02-16T03:51:10.368Z,8.87
2019-02-16T03:53:39.587Z,8.77
2019-02-16T03:56:08.608Z,8.87
2019-02-16T03:58:38.224Z,11.70
2019-02-16T04:01:07.535Z,9.80
2019-02-16T04:03:37.085Z,10.50
2019-02-16T04:06:06.814Z,8.77
2019-02-16T04:08:35.936Z,7.50
2019-02-16T04:11:05.481Z,9.67
2019-02-16T04:13:34.939Z,7.10
2019-02-16T04:16:04.468Z,8.30
2019-02-16T04:18:35.090Z,6.77
2019-02-16T04:21:05.217Z,6.77
2019-02-16T04:23:34.556Z,6.57
2019-02-16T04:26:08.029Z,6.53
2019-02-16T04:28:37.102Z,6.60
2019-02-16T04:31:06.743Z,10.77
2019-02-16T04:33:36.279Z,7.37
2019-02-16T04:36:05.943Z,7.03
2019-02-16T04:38:34.981Z,7.97
2019-02-16T04:41:06.399Z,8.93
2019-02-16T04:43:36.114Z,7.70
2019-02-16T04:46:05.699Z,7.13
2019-02-16T04:48:35.289Z,7.30
2019-02-16T04:51:06.159Z,7.73
2019-02-16T04:53:35.284Z,7.60
2019-02-16T04:56:04.599Z,9.77
2019-02-16T04:58:34.011Z,6.70
2019-02-16T05:01:03.858Z,7.87
2019-02-16T05:03:33.016Z,7.80
2019-02-16T05:06:02.520Z,14.50
2019-02-16T05:08:31.887Z,10.43
2019-02-16T05:11:01.396Z,10.37
2019-02-16T05:13:30.762Z,8.07
2019-02-16T05:16:00.245Z,11.30
2019-02-16T05:18:30.359Z,7.40
2019-02-16T05:21:01.497Z,11.17
2019-02-16T05:23:32.465Z,8.20
2019-02-16T05:26:03.163Z,7.17
2019-02-16T05:28:32.593Z,7.30
2019-02-16T05:31:02.257Z,7.50
2019-02-16T05:33:33.399Z,7.57
2019-02-16T05:36:03.015Z,8.17
2019-02-16T05:38:33.062Z,7.27
2019-02-16T05:41:02.752Z,6.27
2019-02-16T05:43:32.517Z,7.10
2019-02-16T05:46:02.502Z,5.90
2019-02-16T05:48:32.291Z,10.00
2019-02-16T05:51:01.533Z,5.70
2019-02-16T05:53:31.203Z,6.97
2019-02-16T05:56:01.660Z,7.30
2019-02-16T05:58:30.611Z,7.33
2019-02-16T06:01:00.429Z,8.07
2019-02-16T06:03:29.898Z,5.07
2019-02-16T06:05:59.171Z,5.03
2019-02-16T06:08:28.506Z,6.27
2019-02-16T06:10:59.169Z,8.00
2019-02-16T06:13:28.394Z,5.10
2019-02-16T06:15:57.431Z,6.87
2019-02-16T06:18:26.674Z,5.03
2019-02-16T06:20:56.207Z,5.57
2019-02-16T06:23:25.695Z,4.60
2019-02-16T06:25:55.646Z,3.67
2019-02-16T06:28:25.221Z,4.77
2019-02-16T06:30:54.610Z,3.80
2019-02-16T06:33:23.962Z,5.50
2019-02-16T06:36:02.599Z,6.77
2019-02-16T06:38:32.667Z,4.57
2019-02-16T06:41:02.352Z,3.30
2019-02-16T06:43:31.752Z,6.13
2019-02-16T06:46:01.388Z,7.90
2019-02-16T06:48:30.884Z,4.43
2019-02-16T06:51:00.760Z,8.03
2019-02-16T06:53:30.533Z,4.33
2019-02-16T06:56:03.860Z,5.37
2019-02-16T06:58:33.290Z,4.07
2019-02-16T07:01:03.320Z,4.80
2019-02-16T07:03:35.202Z,7.47
2019-02-16T07:06:04.485Z,11.20
2019-02-16T07:08:33.708Z,9.70
2019-02-16T07:11:03.086Z,10.63
2019-02-16T07:13:35.107Z,8.73
2019-02-16T07:16:32.410Z,6.50
2019-02-16T07:19:10.910Z,6.50
2019-02-16T07:21:40.249Z,5.63
2019-02-16T07:24:09.502Z,8.83
2019-02-16T07:26:38.874Z,7.93
2019-02-16T07:29:07.898Z,8.93
2019-02-16T07:31:37.895Z,9.60
2019-02-16T07:34:07.780Z,8.10
2019-02-16T07:36:37.722Z,5.33
2019-02-16T07:39:07.843Z,6.03
2019-02-16T07:41:36.966Z,7.20
2019-02-16T07:44:23.965Z,5.00
2019-02-16T07:47:09.081Z,12.33
2019-02-16T07:49:45.985Z,5.43
2019-02-16T07:52:26.307Z,7.47
2019-02-16T07:54:59.581Z,6.57
2019-02-16T07:57:43.242Z,8.40
2019-02-16T08:00:24.719Z,8.60
2019-02-16T08:03:08.426Z,5.13
2019-02-16T08:06:06.716Z,7.23
2019-02-16T08:09:10.461Z,5.00
2019-02-16T08:12:01.306Z,7.40
2019-02-16T08:14:58.945Z,6.53
2019-02-16T08:17:36.557Z,7.80
2019-02-16T08:20:28.548Z,5.83
2019-02-16T08:23:04.153Z,9.73
2019-02-16T08:25:55.505Z,9.57
2019-02-16T08:28:44.083Z,9.20
2019-02-16T08:31:26.923Z,10.43
2019-02-16T08:34:09.733Z,8.90
2019-02-16T08:37:13.524Z,9.47
2019-02-16T08:40:36.017Z,6.83
2019-02-16T08:47:22.200Z,8.17
2019-02-16T08:54:21.053Z,12.40
2019-02-16T08:56:56.824Z,8.10
2019-02-16T09:15:12.588Z,12.30
2019-02-16T09:17:53.792Z,7.17
2019-02-16T09:20:36.217Z,8.63
2019-02-16T09:23:42.057Z,4.17
2019-02-16T09:37:59.786Z,4.47
2019-02-16T09:40:48.406Z,3.80
2019-02-16T09:43:28.878Z,4.85
2019-02-16T09:46:13.425Z,9.48
2019-02-16T09:48:51.445Z,5.90
2019-02-16T09:51:31.121Z,5.72
2019-02-16T09:54:17.354Z,6.33
2019-02-16T09:56:55.501Z,8.07
2019-02-16T09:59:37.836Z,13.30
2019-02-16T10:02:29.349Z,18.50
2019-02-16T10:05:30.149Z,20.85
2019-02-16T10:08:21.579Z,9.30
2019-02-16T10:11:08.903Z,7.27
2019-02-16T10:13:56.519Z,5.00
2019-02-16T10:16:38.050Z,11.27
2019-02-16T10:19:32.632Z,9.88
2019-02-16T10:22:19.972Z,16.47
2019-02-16T10:25:12.948Z,6.65
2019-02-16T10:28:01.630Z,6.67
2019-02-16T10:30:40.494Z,7.25
2019-02-16T10:33:34.589Z,8.85
2019-02-16T10:36:23.284Z,8.15
2019-02-16T10:39:14.631Z,5.70
2019-02-16T10:41:53.694Z,14.55
2019-02-16T10:44:43.939Z,6.80
2019-02-16T10:47:36.165Z,3.47
2019-02-16T10:50:20.237Z,4.62
2019-02-16T10:53:08.786Z,5.23
2019-02-16T10:56:00.815Z,5.43
2019-02-16T10:59:01.549Z,5.20
2019-02-16T11:01:59.448Z,3.07
2019-02-16T11:04:56.927Z,4.17
2019-02-16T11:07:39.521Z,6.17
2019-02-16T11:10:24.570Z,5.13
2019-02-16T11:13:13.071Z,6.77
2019-02-16T11:16:01.855Z,10.30
2019-02-16T11:18:51.224Z,5.93
2019-02-16T11:21:59.441Z,4.37
2019-02-16T11:24:47.555Z,4.33
2019-02-16T11:27:40.607Z,8.43
2019-02-16T11:30:17.352Z,8.03
2019-02-16T11:33:13.564Z,8.27
2019-02-16T11:36:08.323Z,8.67
2019-02-16T11:39:03.490Z,5.30
2019-02-16T11:41:54.824Z,4.07
2019-02-16T11:44:31.546Z,4.27
2019-02-16T11:47:20.837Z,5.10
2019-02-16T11:50:07.178Z,6.57
2019-02-16T11:52:54.781Z,4.10
2019-02-16T11:55:52.030Z,5.40
2019-02-16T11:58:39.632Z,9.33
2019-02-16T12:02:01.773Z,6.50
2019-02-16T12:04:58.042Z,5.50
2019-02-16T12:07:39.228Z,2.83
2019-02-16T12:10:27.841Z,4.27
2019-02-16T12:13:24.078Z,2.47
2019-02-16T12:16:05.594Z,3.13
2019-02-16T12:18:57.491Z,2.53
2019-02-16T12:21:49.434Z,4.63
2019-02-16T12:24:43.470Z,2.37
2019-02-16T12:27:47.175Z,4.23
2019-02-16T12:30:34.641Z,2.53
2019-02-16T12:33:23.347Z,4.23
2019-02-16T12:36:15.060Z,3.87
2019-02-16T12:39:05.119Z,2.60
2019-02-16T12:41:48.092Z,2.30
2019-02-16T12:44:54.411Z,5.13
2019-02-16T12:47:43.565Z,7.30
2019-02-16T12:53:52.133Z,1.50
2019-02-16T12:56:50.283Z,3.53
2019-02-16T12:59:44.764Z,2.63
2019-02-16T13:02:32.162Z,2.67
2019-02-16T13:05:21.843Z,2.67
2019-02-16T13:08:10.920Z,1.40
2019-02-16T13:10:48.954Z,2.03
2019-02-16T13:13:42.993Z,5.83
2019-02-16T13:16:32.763Z,1.70
2019-02-16T13:19:23.063Z,1.70
2019-02-16T13:22:09.855Z,20.80
2019-02-16T13:24:51.776Z,9.93
2019-02-16T13:27:40.367Z,1.03
2019-02-16T13:30:25.328Z,1.53
2019-02-16T13:33:14.895Z,2.37
2019-02-16T13:36:03.057Z,5.77
2019-02-16T13:39:05.867Z,4.47
2019-02-16T13:41:59.999Z,12.77
2019-02-16T13:44:52.812Z,1.80
2019-02-16T13:47:40.359Z,1.47
2019-02-16T13:51:05.733Z,2.77
2019-02-16T13:53:42.509Z,8.30
2019-02-16T13:56:29.928Z,5.80
2019-02-16T13:59:11.399Z,4.80
2019-02-16T14:03:09.172Z,2.37
2019-02-16T14:09:12.965Z,1.53
2019-02-16T14:12:14.534Z,5.10
2019-02-16T14:14:53.673Z,1.87
2019-02-16T14:17:41.724Z,2.77
2019-02-16T14:20:10.748Z,2.03
2019-02-16T14:22:40.448Z,4.67
2019-02-16T14:25:13.594Z,1.43
2019-02-16T14:27:44.523Z,1.87
2019-02-16T14:30:14.353Z,3.53
2019-02-16T14:32:44.895Z,1.33
2019-02-16T14:35:14.058Z,4.87
2019-02-16T14:37:50.735Z,2.63
2019-02-16T14:40:20.908Z,1.60
2019-02-16T14:42:50.704Z,3.10
2019-02-16T14:45:20.616Z,4.00
2019-02-16T14:47:51.956Z,3.93
2019-02-16T14:50:22.027Z,3.10
2019-02-16T14:52:54.114Z,1.77
2019-02-16T14:55:24.332Z,1.57
2019-02-16T14:57:57.540Z,1.87
2019-02-16T15:00:27.715Z,2.77
2019-02-16T15:03:00.902Z,4.40
2019-02-16T15:05:30.332Z,14.50
2019-02-16T15:08:02.358Z,4.33
2019-02-16T15:10:35.460Z,6.33
2019-02-16T15:13:08.584Z,5.70
2019-02-16T15:15:38.609Z,5.13
2019-02-16T15:18:08.681Z,4.23
2019-02-16T15:20:38.850Z,6.50
2019-02-16T15:23:10.614Z,3.37
2019-02-16T15:25:41.961Z,6.43
2019-02-16T15:28:13.049Z,7.83
2019-02-16T15:30:44.377Z,3.53
2019-02-16T15:33:14.322Z,5.57
2019-02-16T15:35:44.578Z,7.00
2019-02-16T15:38:14.676Z,3.07
2019-02-16T15:40:45.522Z,3.30
2019-02-16T15:43:16.662Z,2.97
2019-02-16T15:45:46.984Z,3.80
2019-02-16T15:48:17.286Z,2.87
2019-02-16T15:50:48.079Z,3.87
2019-02-16T15:53:17.962Z,2.47
2019-02-16T15:55:50.102Z,6.47
2019-02-16T15:58:20.988Z,6.57
2019-02-16T16:00:51.592Z,4.73
2019-02-16T16:03:22.177Z,4.80
2019-02-16T16:05:52.000Z,3.93
2019-02-16T16:08:39.951Z,2.10
2019-02-16T16:11:18.467Z,2.43
2019-02-16T16:14:16.395Z,5.53
2019-02-16T16:16:55.625Z,15.63
2019-02-16T16:19:35.559Z,6.60
2019-02-16T16:22:28.755Z,6.93
2019-02-16T16:25:30.056Z,4.60
2019-02-16T16:28:22.815Z,4.87
2019-02-16T16:31:01.014Z,7.17
2019-02-16T16:33:59.400Z,5.33
2019-02-16T16:36:48.319Z,8.73
2019-02-16T16:39:25.299Z,11.47
2019-02-16T16:42:08.502Z,11.43
2019-02-16T16:44:44.801Z,8.47
2019-02-16T16:47:31.505Z,14.73
2019-02-16T16:50:18.690Z,10.23
2019-02-16T16:53:05.691Z,11.20
2019-02-16T16:55:56.855Z,19.57
2019-02-16T16:58:39.327Z,19.00
2019-02-16T17:01:26.582Z,17.87
2019-02-16T17:04:19.413Z,20.73
2019-02-16T17:07:26.503Z,7.60
2019-02-16T17:10:18.975Z,8.93
2019-02-16T17:13:17.088Z,12.43
2019-02-16T17:16:04.051Z,14.03
2019-02-16T17:19:09.741Z,11.97
2019-02-16T17:22:10.977Z,21.33
2019-02-16T17:24:52.200Z,21.43
2019-02-16T17:27:33.086Z,25.13
2019-02-16T17:30:17.830Z,25.93
2019-02-16T17:33:12.303Z,15.50
2019-02-16T17:36:02.261Z,17.70
2019-02-16T17:38:41.077Z,16.87
2019-02-16T17:41:26.168Z,19.27
2019-02-16T17:44:17.876Z,15.60
2019-02-16T17:47:09.434Z,15.20
2019-02-16T17:49:58.469Z,20.60
2019-02-16T17:52:54.041Z,17.47
2019-02-16T17:55:51.316Z,13.97
2019-02-16T17:58:31.260Z,14.07
2019-02-16T18:01:21.561Z,17.67
2019-02-16T18:04:03.281Z,17.30
2019-02-16T18:06:42.264Z,16.80
2019-02-16T18:09:30.741Z,12.33
2019-02-16T18:12:37.666Z,14.63
2019-02-16T18:15:29.480Z,19.13
2019-02-16T18:18:14.428Z,21.30
2019-02-16T18:21:06.534Z,17.83
2019-02-16T18:23:57.450Z,19.20
2019-02-16T18:26:45.892Z,19.73
2019-02-16T18:29:28.848Z,22.43
2019-02-16T18:32:35.941Z,18.00
2019-02-16T18:35:24.209Z,20.07
2019-02-16T18:38:16.085Z,24.13
2019-02-16T18:41:20.439Z,15.17
2019-02-16T18:44:14.635Z,27.83
2019-02-16T18:47:07.331Z,27.20
2019-02-16T18:50:01.599Z,32.53
2019-02-16T18:52:59.271Z,19.30
2019-02-16T18:55:44.757Z,21.93
2019-02-16T18:58:42.658Z,25.33
2019-02-16T19:01:31.009Z,15.20
2019-02-16T19:04:19.569Z,32.23
2019-02-16T19:06:58.667Z,21.13
2019-02-16T19:09:50.179Z,26.23
2019-02-16T19:12:37.201Z,20.00
2019-02-16T19:15:33.921Z,26.83
2019-02-16T19:18:13.305Z,25.13
2019-02-16T19:21:05.430Z,22.23
2019-02-16T19:23:49.161Z,26.87
2019-02-16T19:26:40.830Z,17.57
2019-02-16T19:29:42.025Z,32.60
2019-02-16T19:32:23.069Z,18.93
2019-02-16T19:35:14.604Z,22.50
2019-02-16T19:38:15.226Z,28.23
2019-02-16T19:41:10.500Z,30.73
2019-02-16T19:44:02.889Z,17.57
2019-02-16T19:46:52.673Z,21.57
2019-02-16T19:49:42.059Z,20.77
2019-02-16T19:52:33.615Z,15.33
2019-02-16T19:55:22.454Z,18.73
2019-02-16T19:58:05.871Z,17.87
2019-02-16T20:00:53.182Z,17.80
2019-02-16T20:03:38.637Z,17.70
2019-02-16T20:06:36.080Z,18.03
2019-02-16T20:09:25.321Z,17.13
2019-02-16T20:12:25.822Z,20.60
2019-02-16T20:15:24.305Z,14.70
2019-02-16T20:18:26.414Z,16.57
2019-02-16T20:21:15.107Z,17.03
2019-02-16T20:24:26.816Z,21.23
2019-02-16T20:27:20.844Z,15.47
2019-02-16T20:30:18.189Z,17.87
2019-02-16T20:33:19.621Z,13.77
2019-02-16T20:36:08.654Z,20.67
2019-02-16T20:38:57.479Z,19.07
2019-02-16T20:41:34.684Z,13.03
2019-02-16T20:44:42.223Z,15.37
2019-02-16T20:47:25.122Z,13.87
2019-02-16T20:50:13.393Z,18.47
2019-02-16T20:52:57.333Z,13.63
2019-02-16T20:55:43.582Z,11.23
2019-02-16T20:58:26.498Z,13.43
2019-02-16T21:01:23.685Z,13.30
2019-02-16T21:04:07.259Z,12.57
2019-02-16T21:06:56.359Z,12.83
2019-02-16T21:09:35.734Z,14.13
2019-02-16T21:12:23.935Z,14.13
2019-02-16T21:15:15.390Z,12.27
2019-02-16T21:18:11.691Z,13.97
2019-02-16T21:21:09.710Z,16.93
2019-02-16T21:23:58.717Z,14.50
2019-02-16T21:26:39.871Z,13.83
2019-02-16T21:29:32.269Z,15.33
2019-02-16T21:32:30.815Z,15.00
2019-02-16T21:35:17.856Z,8.20
2019-02-16T21:38:22.157Z,6.93
2019-02-16T21:41:07.661Z,8.37
2019-02-16T21:43:44.918Z,7.10
2019-02-16T21:46:33.192Z,8.07
2019-02-16T21:49:21.775Z,7.73
2019-02-16T21:52:01.747Z,8.70
2019-02-16T21:55:00.505Z,8.83
2019-02-16T21:58:08.167Z,7.97
2019-02-16T22:00:51.921Z,6.53
2019-02-16T22:03:39.115Z,7.03
2019-02-16T22:06:27.940Z,8.60
2019-02-16T22:09:16.027Z,5.60
2019-02-16T22:12:04.991Z,5.07
2019-02-16T22:14:37.792Z,6.50
2019-02-16T22:17:07.144Z,7.57
2019-02-16T22:19:36.451Z,5.67
2019-02-16T22:22:14.711Z,3.93
2019-02-16T22:24:43.972Z,5.10
2019-02-16T22:27:13.930Z,4.37
2019-02-16T22:29:44.255Z,6.67
2019-02-16T22:32:13.648Z,6.70
2019-02-16T22:34:44.655Z,6.47
2019-02-16T22:37:14.139Z,5.77
2019-02-16T22:39:43.995Z,5.93
2019-02-16T22:42:13.928Z,10.43
2019-02-16T22:44:45.590Z,8.70
2019-02-16T22:47:16.449Z,5.73
2019-02-16T22:49:49.347Z,5.07
2019-02-16T22:52:19.076Z,8.33
2019-02-16T22:54:48.836Z,4.90
2019-02-16T22:57:22.060Z,4.27
2019-02-16T22:59:52.543Z,4.93
2019-02-16T23:02:22.447Z,5.00
2019-02-16T23:04:52.182Z,8.10
2019-02-16T23:07:21.893Z,7.87
2019-02-16T23:09:51.399Z,6.03
2019-02-16T23:12:21.350Z,6.17
2019-02-16T23:14:51.665Z,5.50
2019-02-16T23:17:22.639Z,8.17
2019-02-16T23:19:52.489Z,7.23
2019-02-16T23:22:22.339Z,8.27
2019-02-16T23:24:51.849Z,7.17
2019-02-16T23:27:21.602Z,9.27
2019-02-16T23:29:51.590Z,4.87
2019-02-16T23:32:21.631Z,6.90
2019-02-16T23:34:52.010Z,8.53
2019-02-16T23:37:24.427Z,6.93
2019-02-16T23:39:54.084Z,7.13
2019-02-16T23:42:23.238Z,5.23
2019-02-16T23:44:52.953Z,8.53
2019-02-16T23:47:22.888Z,5.60
2019-02-16T23:49:52.654Z,10.50
2019-02-16T23:52:25.120Z,11.20
2019-02-16T23:54:56.699Z,8.53
2019-02-16T23:57:28.053Z,9.37
2019-02-16T23:59:58.159Z,11.17
